Time;durP1;ratioP1;P1;durP2;ratioP2;P2;SDS_P1;SDS_P2;PMS_P1;PMS_P2;Temp;Humidity;BMP_temperature;BMP_pressure;BME280_temperature;BME280_humidity;BME280_pressure;Samples;Min_cycle;Max_cycle;Signal;HPM_P1;HPM_P2
2022/08/15 00:01:37;;;;;;;12.00;9.00;;;;;;;23.41;55.11;100106.03;6124146;23;20389;-84
2022/08/15 00:07:44;;;;;;;15.55;9.80;;;;;;;23.38;55.89;100099.16;6123975;23;20077;-84
2022/08/15 00:14:04;;;;;;;11.77;9.80;;;;;;;23.33;56.11;100113.16;6125899;23;20033;-84
2022/08/15 00:20:01;;;;;;;10.90;9.77;;;;;;;23.30;56.31;100109.06;6217547;23;20055;-84
2022/08/15 00:26:10;;;;;;;15.85;9.80;;;;;;;23.32;55.56;100102.41;6217466;23;20061;-84
2022/08/15 00:28:36;;;;;;;11.38;9.32;;;;;;;23.28;57.57;100119.66;6190926;23;20370;-85
2022/08/15 00:31:05;;;;;;;11.57;9.90;;;;;;;23.24;57.26;100117.84;6165639;23;20095;-84
2022/08/15 00:34:10;;;;;;;17.05;10.82;;;;;;;23.22;56.44;100115.41;6167018;23;20027;-84
2022/08/15 00:40:09;;;;;;;17.30;10.48;;;;;;;23.17;54.79;100101.69;6217350;23;20048;-85
2022/08/15 00:46:12;;;;;;;13.43;8.60;;;;;;;23.19;52.28;100104.13;6217306;23;20007;-84
2022/08/15 00:52:09;;;;;;;17.13;8.07;;;;;;;23.22;49.56;100109.03;6217290;23;20054;-85
2022/08/15 00:54:39;;;;;;;13.18;7.20;;;;;;;23.30;49.13;100105.50;6217571;23;20009;-85
2022/08/15 00:57:16;;;;;;;7.80;6.50;;;;;;;23.31;48.45;100112.66;6216957;23;20028;-85
2022/08/15 00:59:48;;;;;;;8.73;6.27;;;;;;;23.29;48.03;100109.41;6191190;23;20427;-85
2022/08/15 01:02:16;;;;;;;10.23;6.45;;;;;;;23.29;47.40;100107.44;6191169;23;20004;-85
2022/08/15 01:04:43;;;;;;;7.50;5.93;;;;;;;23.28;47.51;100105.81;6190702;23;20015;-85
2022/08/15 01:07:35;;;;;;;6.63;5.18;;;;;;;23.30;47.21;100116.56;6191034;23;20035;-85
2022/08/15 01:13:32;;;;;;;13.83;4.97;;;;;;;23.26;46.34;100108.06;6217115;23;20012;-83
2022/08/15 01:15:57;;;;;;;7.25;4.57;;;;;;;23.20;46.48;100095.53;6217815;23;20008;-85
2022/08/15 01:18:22;;;;;;;7.35;5.00;;;;;;;23.15;46.51;100097.59;6166403;23;20024;-85
2022/08/15 01:20:49;;;;;;;7.27;4.77;;;;;;;23.14;46.31;100096.00;6191170;23;20407;-85
2022/08/15 01:26:26;;;;;;;6.83;4.30;;;;;;;23.02;46.28;100105.66;6217632;23;20023;-85
2022/08/15 01:32:14;;;;;;;10.23;4.40;;;;;;;22.89;46.13;100101.84;6216437;23;20102;-85
2022/08/15 01:35:35;;;;;;;7.07;4.20;;;;;;;22.86;46.53;100108.00;6190121;23;20043;-85
2022/08/15 01:38:03;;;;;;;6.43;3.58;;;;;;;22.68;46.57;100095.22;6191419;23;20008;-85
2022/08/15 01:41:06;;;;;;;8.57;3.83;;;;;;;22.69;46.19;100103.19;6217764;23;20009;-85
2022/08/15 01:43:36;;;;;;;5.00;3.70;;;;;;;22.57;46.97;100095.47;6216926;23;20007;-86
2022/08/15 01:46:07;;;;;;;8.10;4.22;;;;;;;22.53;46.83;100104.69;6190079;23;20007;-84
2022/08/15 01:48:41;;;;;;;5.30;3.90;;;;;;;22.50;46.55;100119.13;6189899;23;20327;-85
2022/08/15 01:51:10;;;;;;;4.05;3.30;;;;;;;22.44;46.68;100121.22;6216596;23;20008;-85
2022/08/15 01:53:47;;;;;;;10.03;3.77;;;;;;;22.37;46.47;100115.31;6217570;23;20032;-85
2022/08/15 01:56:28;;;;;;;4.97;3.47;;;;;;;22.33;47.02;100117.06;6189803;23;20009;-85
2022/08/15 01:58:53;;;;;;;7.45;3.65;;;;;;;22.21;46.61;100104.56;6190429;23;20008;-84
2022/08/15 02:04:42;;;;;;;5.88;3.60;;;;;;;22.11;47.46;100104.81;6216595;23;20058;-85
2022/08/15 02:07:17;;;;;;;5.57;3.38;;;;;;;22.06;46.90;100113.22;6166542;23;20008;-85
2022/08/15 02:09:44;;;;;;;8.23;3.58;;;;;;;22.01;47.35;100099.50;6190149;23;20083;-85
2022/08/15 02:12:12;;;;;;;10.73;3.50;;;;;;;21.99;47.29;100112.84;6189849;23;20012;-85
2022/08/15 02:14:41;;;;;;;6.60;3.57;;;;;;;21.96;47.76;100114.25;6216685;23;20024;-86
2022/08/15 02:17:08;;;;;;;6.20;3.30;;;;;;;21.92;47.62;100106.91;6190078;23;20005;-85
2022/08/15 02:19:34;;;;;;;7.07;3.38;;;;;;;21.89;47.79;100111.94;6190024;23;20099;-85
2022/08/15 02:22:00;;;;;;;6.53;3.65;;;;;;;21.83;47.93;100104.88;6189958;23;20047;-86
2022/08/15 02:24:25;;;;;;;5.77;3.30;;;;;;;21.81;48.23;100107.13;6216284;23;20032;-85
2022/08/15 02:26:53;;;;;;;5.50;3.87;;;;;;;21.77;48.12;100110.81;6190091;23;20008;-85
2022/08/15 02:29:22;;;;;;;8.30;3.80;;;;;;;21.73;48.20;100110.59;6190272;23;20099;-85
2022/08/15 02:31:47;;;;;;;7.50;3.88;;;;;;;21.67;48.29;100087.84;6189756;23;20017;-85
2022/08/15 02:34:13;;;;;;;4.00;3.60;;;;;;;21.69;48.52;100104.09;6189826;23;20019;-85
2022/08/15 02:36:41;;;;;;;5.80;3.42;;;;;;;21.68;48.54;100102.44;6216499;23;20008;-85
2022/08/15 02:39:09;;;;;;;5.47;3.78;;;;;;;21.64;48.54;100107.78;6216473;23;20083;-85
2022/08/15 02:41:43;;;;;;;8.32;3.90;;;;;;;21.60;48.61;100106.75;6216433;23;20023;-84
2022/08/15 02:44:25;;;;;;;6.90;3.70;;;;;;;21.64;48.13;100112.47;6190852;23;20005;-84
2022/08/15 02:50:16;;;;;;;5.38;3.55;;;;;;;21.60;48.45;100123.31;6216191;23;20015;-85
2022/08/15 02:52:44;;;;;;;6.85;3.85;;;;;;;21.58;48.57;100120.03;6190029;23;20427;-84
2022/08/15 02:55:11;;;;;;;6.45;4.05;;;;;;;21.52;48.84;100107.47;6190099;23;20004;-84
2022/08/15 02:57:38;;;;;;;7.87;4.07;;;;;;;21.52;48.94;100116.53;6189819;23;20095;-84
2022/08/15 03:03:26;;;;;;;6.82;4.05;;;;;;;21.45;49.38;100118.06;6216048;23;20055;-85
2022/08/15 03:05:52;;;;;;;8.02;3.70;;;;;;;21.43;49.59;100120.31;6189291;23;20450;-84
2022/08/15 03:08:20;;;;;;;4.53;3.30;;;;;;;21.40;49.63;100121.72;6165361;23;20489;-85
2022/08/15 03:10:46;;;;;;;6.40;3.57;;;;;;;21.36;49.67;100126.22;6165827;23;20019;-85
2022/08/15 03:13:15;;;;;;;4.60;4.10;;;;;;;21.36;49.88;100131.75;6189185;23;20063;-85
2022/08/15 03:15:45;;;;;;;8.10;3.60;;;;;;;21.30;49.75;100125.50;6189450;23;20361;-85
2022/08/15 03:18:12;;;;;;;7.72;3.80;;;;;;;21.23;50.22;100136.13;6190109;23;20031;-85
2022/08/15 03:20:38;;;;;;;9.07;4.00;;;;;;;21.16;50.52;100131.00;6216348;23;20094;-85
2022/08/15 03:23:07;;;;;;;5.23;3.90;;;;;;;21.11;50.72;100120.09;6190036;23;20318;-85
2022/08/15 03:25:38;;;;;;;6.68;3.90;;;;;;;21.13;50.98;100122.53;6190004;23;20087;-85
2022/08/15 03:28:04;;;;;;;9.00;4.32;;;;;;;21.16;50.85;100117.22;6189851;23;20082;-85
2022/08/15 03:30:29;;;;;;;7.03;3.85;;;;;;;21.10;51.01;100115.69;6165183;23;20395;-85
2022/08/15 03:32:57;;;;;;;7.07;3.87;;;;;;;21.06;51.12;100122.91;6216798;23;20055;-85
2022/08/15 03:35:25;;;;;;;6.15;3.88;;;;;;;21.01;51.09;100129.34;6189741;23;20005;-85
2022/08/15 03:37:51;;;;;;;5.53;3.80;;;;;;;20.96;51.34;100128.63;6190422;23;20008;-85
2022/08/15 03:40:16;;;;;;;5.00;4.03;;;;;;;20.87;51.65;100111.13;6189352;23;20478;-85
2022/08/15 03:42:58;;;;;;;7.17;4.20;;;;;;;20.81;51.85;100115.91;6189577;23;20019;-85
2022/08/15 03:45:25;;;;;;;12.77;4.50;;;;;;;20.78;52.17;100122.84;6189716;23;20088;-84
2022/08/15 03:47:51;;;;;;;8.13;4.57;;;;;;;20.72;52.61;100120.50;6191549;23;20040;-85
2022/08/15 03:50:16;;;;;;;11.83;4.70;;;;;;;20.71;52.90;100125.16;6167633;23;20017;-84
2022/08/15 03:59:16;;;;;;;6.93;4.30;;;;;;;20.56;53.76;100137.22;6096837;23;20145;-85
2022/08/15 04:01:42;;;;;;;6.63;4.20;;;;;;;20.57;53.73;100135.31;6166924;23;20083;-85
2022/08/15 04:04:07;;;;;;;8.23;4.15;;;;;;;20.55;54.04;100140.28;6191203;23;20004;-85
2022/08/15 04:06:33;;;;;;;8.60;4.60;;;;;;;20.54;54.52;100130.41;6218175;23;20066;-85
2022/08/15 04:08:59;;;;;;;8.83;4.17;;;;;;;20.49;54.82;100129.34;6166687;23;20020;-85
2022/08/15 04:11:28;;;;;;;7.35;4.20;;;;;;;20.49;55.18;100126.59;6217800;23;20008;-85
2022/08/15 04:13:54;;;;;;;8.35;4.70;;;;;;;20.51;55.67;100132.63;6191059;23;20004;-85
2022/08/15 04:16:21;;;;;;;10.38;4.38;;;;;;;20.49;55.94;100123.00;6191104;23;20308;-85
2022/08/15 04:18:46;;;;;;;11.65;4.38;;;;;;;20.47;56.55;100128.81;6191405;23;20004;-85
2022/08/15 04:21:14;;;;;;;6.13;4.40;;;;;;;20.44;56.99;100126.66;6191156;23;20104;-85
2022/08/15 04:23:44;;;;;;;6.75;4.00;;;;;;;20.47;57.23;100142.59;6190710;23;20494;-85
2022/08/15 04:26:10;;;;;;;8.60;4.30;;;;;;;20.41;57.32;100135.53;6191036;23;20374;-85
2022/08/15 04:28:35;;;;;;;7.20;4.35;;;;;;;20.46;57.70;100140.13;6190938;23;20435;-84
2022/08/15 04:31:06;;;;;;;13.23;4.70;;;;;;;20.48;57.90;100141.50;6165539;23;20009;-84
2022/08/15 04:34:31;;;;;;;8.30;4.60;;;;;;;20.51;58.03;100151.09;6190695;23;20015;-84
2022/08/15 04:40:19;;;;;;;7.07;4.30;;;;;;;20.48;59.44;100143.44;6217371;23;20018;-84
2022/08/15 04:42:50;;;;;;;6.03;4.30;;;;;;;20.48;59.55;100148.94;6141463;23;20017;-85
2022/08/15 04:45:15;;;;;;;7.88;4.50;;;;;;;20.48;60.07;100144.25;6190818;23;20001;-84
2022/08/15 04:47:41;;;;;;;8.43;4.47;;;;;;;20.49;60.33;100145.88;6191177;23;20103;-85
2022/08/15 04:50:10;;;;;;;8.55;4.22;;;;;;;20.52;60.50;100149.97;6166344;23;20013;-85
2022/08/15 04:52:43;;;;;;;9.50;4.50;;;;;;;20.52;60.37;100138.94;6190331;23;20036;-84
2022/08/15 04:59:18;;;;;;;9.27;5.05;;;;;;;20.60;60.70;100143.78;6216177;23;20009;-84
2022/08/15 05:05:10;;;;;;;6.72;4.53;;;;;;;20.61;61.12;100153.69;6216977;23;20038;-84
2022/08/15 05:07:36;;;;;;;10.25;4.45;;;;;;;20.67;61.54;100151.72;6217195;23;20012;-85
2022/08/15 05:10:04;;;;;;;11.27;4.93;;;;;;;20.66;61.33;100153.63;6166290;23;20012;-85
2022/08/15 05:12:30;;;;;;;10.77;4.45;;;;;;;20.68;61.61;100148.66;6217812;23;20011;-85
2022/08/15 05:15:28;;;;;;;10.18;4.93;;;;;;;20.75;60.69;100141.94;6190805;23;20012;-84
2022/08/15 05:21:15;;;;;;;5.65;4.30;;;;;;;20.77;60.96;100147.97;6216911;23;20390;-84
2022/08/15 05:23:42;;;;;;;11.52;4.50;;;;;;;20.83;61.43;100169.63;6190415;23;20012;-86
2022/08/15 05:26:12;;;;;;;10.03;4.40;;;;;;;20.88;61.34;100154.13;6190691;23;20004;-83
2022/08/15 05:28:38;;;;;;;8.57;4.68;;;;;;;20.89;61.57;100169.53;6190674;23;20326;-83
2022/08/15 05:31:06;;;;;;;8.27;4.45;;;;;;;20.89;61.98;100180.56;6189565;23;20016;-88
2022/08/15 05:33:32;;;;;;;14.53;4.97;;;;;;;20.89;65.34;100167.63;6190776;23;20005;-84
2022/08/15 05:36:02;;;;;;;7.18;4.35;;;;;;;20.43;67.81;100171.88;6216954;23;20429;-85
2022/08/15 05:38:35;;;;;;;11.55;5.13;;;;;;;19.94;69.90;100182.16;6190522;23;20016;-85
2022/08/15 05:41:03;;;;;;;11.30;5.18;;;;;;;19.67;70.50;100180.00;6190593;23;20323;-85
2022/08/15 05:43:58;;;;;;;10.90;5.40;;;;;;;19.59;69.02;100180.63;6189870;23;20005;-86
2022/08/15 05:46:31;;;;;;;11.20;4.80;;;;;;;19.60;69.82;100179.50;6207778;23;20020;-84
2022/08/15 05:49:15;;;;;;;10.02;5.15;;;;;;;19.60;69.47;100166.56;6216807;23;20415;-83
2022/08/15 05:52:17;;;;;;;8.80;4.50;;;;;;;19.78;69.08;100183.47;6216756;23;20008;-85
2022/08/15 05:55:21;;;;;;;9.15;5.00;;;;;;;19.93;68.66;100186.03;6156371;23;20009;-84
2022/08/15 05:58:11;;;;;;;7.30;4.17;;;;;;;20.19;68.25;100191.22;6190645;23;20012;-84
2022/08/15 06:00:40;;;;;;;10.25;4.82;;;;;;;20.46;67.00;100182.31;6190751;23;20013;-84
2022/08/15 06:03:20;;;;;;;10.88;4.40;;;;;;;20.62;65.89;100182.06;6189903;23;20066;-84
2022/08/15 06:05:55;;;;;;;8.07;4.22;;;;;;;20.81;65.45;100193.09;6190517;23;20019;-84
2022/08/15 06:08:25;;;;;;;7.32;4.18;;;;;;;20.90;65.11;100187.72;6189560;23;20066;-84
2022/08/15 06:10:58;;;;;;;8.50;4.30;;;;;;;21.01;64.98;100184.50;6189051;23;20411;-84
2022/08/15 06:13:39;;;;;;;14.88;5.00;;;;;;;21.11;64.30;100188.19;6190225;23;20009;-83
2022/08/15 06:16:16;;;;;;;6.38;4.72;;;;;;;21.14;64.74;100195.84;6190267;23;20016;-84
2022/08/15 06:18:46;;;;;;;8.65;4.78;;;;;;;21.12;65.02;100182.38;6189539;23;20008;-85
2022/08/15 06:21:37;;;;;;;6.88;4.65;;;;;;;21.20;63.73;100189.97;6190046;23;20415;-85
2022/08/15 06:24:14;;;;;;;6.97;4.67;;;;;;;21.31;63.96;100189.78;6188907;23;20009;-84
2022/08/15 06:27:00;;;;;;;6.90;4.47;;;;;;;21.42;63.69;100194.00;6216361;23;20082;-84
2022/08/15 06:29:53;;;;;;;13.43;5.18;;;;;;;21.49;64.00;100186.13;6189242;23;20087;-84
2022/08/15 06:32:27;;;;;;;8.88;4.70;;;;;;;21.59;63.83;100187.91;6190092;23;20445;-83
2022/08/15 06:35:04;;;;;;;8.95;4.82;;;;;;;21.60;64.12;100197.84;6190681;23;20398;-83
2022/08/15 06:37:51;;;;;;;8.07;4.50;;;;;;;21.61;64.03;100201.41;6189964;23;20043;-82
2022/08/15 06:40:33;;;;;;;6.50;4.57;;;;;;;21.57;64.11;100195.69;6190112;23;20004;-82
2022/08/15 06:42:59;;;;;;;8.82;4.60;;;;;;;21.65;64.59;100194.16;6189637;23;20016;-82
2022/08/15 06:45:37;;;;;;;8.50;4.65;;;;;;;21.70;64.39;100199.56;6216640;23;20032;-82
2022/08/15 06:48:10;;;;;;;8.45;4.35;;;;;;;21.76;63.84;100192.84;6216153;23;20001;-83
2022/08/15 06:50:44;;;;;;;10.33;4.70;;;;;;;21.80;64.07;100196.59;6189670;23;20462;-83
2022/08/15 06:53:53;;;;;;;8.43;4.80;;;;;;;21.87;63.66;100201.72;6216608;23;20001;-83
2022/08/15 06:56:33;;;;;;;8.25;4.78;;;;;;;21.90;64.00;100203.88;6100120;23;20112;-83
2022/08/15 06:59:02;;;;;;;11.13;4.88;;;;;;;21.99;63.95;100215.81;6184253;23;20443;-83
2022/08/15 07:02:15;;;;;;;8.73;4.80;;;;;;;22.11;63.22;100204.25;6215787;23;20008;-84
2022/08/15 07:05:05;;;;;;;7.30;4.97;;;;;;;22.27;63.17;100201.97;6134280;23;20057;-85
2022/08/15 07:07:47;;;;;;;7.85;5.55;;;;;;;22.48;62.41;100187.75;6133357;23;20008;-86
2022/08/15 07:10:33;;;;;;;7.40;5.45;;;;;;;22.61;61.85;100195.16;6189921;23;20008;-86
2022/08/15 07:13:16;;;;;;;7.93;4.80;;;;;;;22.69;61.57;100193.59;6189785;23;20012;-86
2022/08/15 07:15:58;;;;;;;11.10;5.50;;;;;;;22.72;61.30;100190.22;6215961;23;20407;-86
2022/08/15 07:18:45;;;;;;;7.20;5.30;;;;;;;22.74;61.62;100193.50;6188214;23;20016;-86
2022/08/15 07:21:12;;;;;;;8.40;5.85;;;;;;;22.75;61.91;100187.66;6191006;23;20001;-87
2022/08/15 07:24:02;;;;;;;11.90;5.05;;;;;;;22.87;60.99;100189.00;6218439;23;20000;-86
2022/08/15 07:26:29;;;;;;;8.70;5.13;;;;;;;22.91;61.58;100187.25;6191154;23;20008;-86
2022/08/15 07:29:01;;;;;;;8.38;5.05;;;;;;;23.09;61.29;100197.31;6217540;23;20128;-87
2022/08/15 07:31:33;;;;;;;9.83;6.40;;;;;;;23.03;60.95;100192.22;6191029;23;20012;-87
2022/08/15 07:34:25;;;;;;;10.73;6.13;;;;;;;22.97;61.11;100187.94;6191732;23;20004;-87
2022/08/15 07:37:05;;;;;;;13.82;6.72;;;;;;;23.03;60.93;100197.75;6191054;23;20431;-86
2022/08/15 07:39:38;;;;;;;15.93;6.57;;;;;;;22.99;60.95;100180.16;6190044;23;20008;-87
2022/08/15 07:42:41;;;;;;;24.98;6.95;;;;;;;23.08;60.62;100192.91;6218010;23;20434;-88
2022/08/15 07:45:15;;;;;;;15.30;6.53;;;;;;;23.11;60.85;100185.97;6203405;23;20398;-86
2022/08/15 07:47:57;;;;;;;16.58;6.57;;;;;;;23.21;60.72;100184.88;6191230;23;20008;-86
2022/08/15 07:50:31;;;;;;;15.88;7.22;;;;;;;23.31;60.65;100190.13;6191526;23;20005;-87
2022/08/15 07:53:11;;;;;;;11.48;6.55;;;;;;;23.25;59.99;100189.47;6192203;23;20035;-86
2022/08/15 07:55:40;;;;;;;9.05;6.47;;;;;;;23.32;60.40;100186.25;6217524;23;20175;-86
2022/08/15 07:58:17;;;;;;;16.33;6.23;;;;;;;23.54;59.33;100198.41;6217098;23;20039;-86
2022/08/15 08:00:52;;;;;;;8.05;5.45;;;;;;;23.63;59.39;100205.59;6218166;23;20016;-86
2022/08/15 08:03:29;;;;;;;11.10;5.78;;;;;;;23.71;59.07;100197.66;6191125;23;20019;-86
2022/08/15 08:06:36;;;;;;;8.43;5.93;;;;;;;23.92;58.53;100206.25;6217884;23;20055;-87
2022/08/15 08:09:22;;;;;;;11.52;6.80;;;;;;;24.03;57.75;100204.00;6178860;23;20032;-87
2022/08/15 08:11:55;;;;;;;11.03;5.90;;;;;;;24.06;57.69;100204.16;6217837;23;20008;-86
2022/08/15 08:15:01;;;;;;;11.70;6.20;;;;;;;24.25;57.34;100208.59;6217467;23;20008;-87
2022/08/15 08:17:38;;;;;;;8.80;6.28;;;;;;;24.29;56.79;100210.41;6191883;23;20011;-87
2022/08/15 08:20:32;;;;;;;12.50;6.57;;;;;;;24.35;56.49;100216.59;6191360;23;20070;-86
2022/08/15 08:23:15;;;;;;;9.30;5.40;;;;;;;24.43;57.04;100215.78;6191726;23;20036;-87
2022/08/15 08:26:02;;;;;;;12.80;6.07;;;;;;;24.45;56.76;100218.28;6191436;23;20106;-86
2022/08/15 08:29:03;;;;;;;13.52;6.45;;;;;;;24.34;56.82;100221.34;6191424;23;20020;-87
2022/08/15 08:32:04;;;;;;;12.85;6.40;;;;;;;24.24;57.15;100221.66;6190721;23;20012;-86
2022/08/15 08:35:11;;;;;;;14.70;6.20;;;;;;;24.20;57.57;100222.59;6154548;23;20011;-86
2022/08/15 08:37:43;;;;;;;24.17;7.05;;;;;;;24.20;57.52;100209.56;6165390;23;20062;-87
2022/08/15 08:43:40;;;;;;;22.63;7.10;;;;;;;24.06;57.99;100215.22;6217906;23;20020;-87
2022/08/15 08:46:19;;;;;;;25.08;6.85;;;;;;;23.97;58.25;100217.97;6217505;23;20430;-86
2022/08/15 08:48:48;;;;;;;18.90;6.85;;;;;;;23.79;58.83;100222.63;6190550;23;20079;-86
2022/08/15 08:51:34;;;;;;;14.85;6.25;;;;;;;23.68;59.37;100226.00;6191265;23;20021;-87
2022/08/15 08:54:15;;;;;;;16.43;6.20;;;;;;;23.61;59.84;100210.66;6191411;23;20012;-87
2022/08/15 08:56:48;;;;;;;14.30;6.70;;;;;;;23.52;59.91;100220.88;6190753;23;20094;-84
2022/08/15 08:59:39;;;;;;;12.35;6.88;;;;;;;23.35;60.32;100223.56;6190587;23;20018;-86
2022/08/15 09:02:29;;;;;;;11.27;6.72;;;;;;;23.20;60.91;100222.00;6190578;23;20008;-86
2022/08/15 09:05:02;;;;;;;10.10;6.78;;;;;;;23.26;61.51;100229.84;6216853;23;20120;-85
2022/08/15 09:07:30;;;;;;;9.03;6.07;;;;;;;23.24;61.73;100217.47;6190160;23;20024;-85
2022/08/15 09:10:00;;;;;;;12.38;6.63;;;;;;;23.32;61.77;100238.03;6190835;23;20004;-86
2022/08/15 09:15:24;;;;;;;12.05;7.00;;;;;;;23.33;61.34;100242.44;6217521;23;20236;-85
2022/08/15 09:18:04;;;;;;;11.48;6.70;;;;;;;23.32;61.12;100240.78;6216888;23;20084;-85
2022/08/15 09:20:36;;;;;;;11.17;6.10;;;;;;;23.55;60.91;100236.00;6190876;23;20008;-85
2022/08/15 09:23:05;;;;;;;9.57;6.78;;;;;;;23.65;60.15;100246.81;6190476;23;20330;-86
2022/08/15 09:25:36;;;;;;;9.35;6.20;;;;;;;23.65;60.70;100236.56;6189947;23;20116;-86
2022/08/15 09:28:06;;;;;;;11.05;6.85;;;;;;;23.79;60.25;100244.78;6217332;23;20005;-86
2022/08/15 09:30:32;;;;;;;12.80;7.13;;;;;;;23.86;59.85;100236.03;6190336;23;20403;-86
2022/08/15 09:33:33;;;;;;;13.83;7.63;;;;;;;23.95;59.48;100236.06;6141500;23;20023;-86
2022/08/15 09:36:16;;;;;;;9.20;7.00;;;;;;;23.96;59.96;100243.22;6189919;23;20075;-86
2022/08/15 09:38:57;;;;;;;11.55;7.22;;;;;;;24.03;59.31;100245.56;6191254;23;20365;-85
2022/08/15 09:41:55;;;;;;;10.75;7.78;;;;;;;23.98;59.14;100241.78;6217371;23;20062;-85
2022/08/15 09:44:31;;;;;;;9.68;7.13;;;;;;;24.04;59.49;100228.59;6159259;23;20076;-86
2022/08/15 09:47:18;;;;;;;10.27;7.50;;;;;;;24.28;59.10;100232.91;6190462;23;20008;-86
2022/08/15 09:50:00;;;;;;;11.75;7.35;;;;;;;24.53;58.76;100229.34;6190788;23;20062;-87
2022/08/15 09:52:41;;;;;;;14.57;7.60;;;;;;;24.88;57.72;100234.13;6190642;23;20035;-85
2022/08/15 09:55:22;;;;;;;11.48;6.55;;;;;;;25.13;57.24;100238.03;6190440;23;20031;-86
2022/08/15 09:57:52;;;;;;;9.95;7.05;;;;;;;25.12;56.47;100239.16;6190546;23;20004;-86
2022/08/15 10:00:52;;;;;;;12.27;7.17;;;;;;;25.12;56.69;100243.91;6216683;23;20008;-86
2022/08/15 10:03:24;;;;;;;11.40;7.20;;;;;;;25.14;56.35;100242.44;6211890;23;20435;-86
2022/08/15 10:06:09;;;;;;;12.13;6.65;;;;;;;25.10;56.53;100240.63;6189580;23;20095;-85
2022/08/15 10:08:53;;;;;;;9.35;6.50;;;;;;;25.38;56.17;100249.44;6190349;23;20008;-86
2022/08/15 10:11:38;;;;;;;13.90;7.53;;;;;;;25.36;55.40;100235.91;6190026;23;20008;-85
2022/08/15 10:14:16;;;;;;;13.23;7.90;;;;;;;25.45;55.42;100246.16;6191052;23;20009;-86
2022/08/15 10:16:46;;;;;;;10.77;7.18;;;;;;;25.35;55.24;100233.44;6216903;23;20051;-85
2022/08/15 10:19:34;;;;;;;13.00;7.55;;;;;;;25.44;55.18;100234.25;6216533;23;20004;-86
2022/08/15 10:22:25;;;;;;;11.77;7.10;;;;;;;25.50;55.40;100240.44;6190969;23;20009;-85
2022/08/15 10:25:18;;;;;;;10.93;6.50;;;;;;;25.63;55.12;100255.25;6189823;23;20004;-86
2022/08/15 10:28:05;;;;;;;11.40;6.07;;;;;;;25.68;54.00;100253.09;6189591;23;20008;-86
2022/08/15 10:31:01;;;;;;;9.70;6.20;;;;;;;25.39;54.46;100238.00;6190671;23;20434;-85
2022/08/15 10:33:36;;;;;;;13.15;6.60;;;;;;;25.48;54.84;100242.72;6214101;23;20023;-85
2022/08/15 10:36:13;;;;;;;9.70;5.93;;;;;;;25.29;54.95;100243.03;6190043;23;20423;-86
2022/08/15 10:38:47;;;;;;;9.40;5.93;;;;;;;25.23;55.70;100236.84;6189452;23;20005;-86
2022/08/15 10:41:41;;;;;;;11.17;5.90;;;;;;;25.32;55.42;100251.56;6190616;23;20005;-85
2022/08/15 10:44:19;;;;;;;9.80;6.13;;;;;;;25.18;55.52;100251.72;6189342;23;20005;-86
2022/08/15 10:47:03;;;;;;;8.35;6.00;;;;;;;24.91;56.02;100260.41;6189601;23;20013;-86
2022/08/15 10:49:50;;;;;;;10.07;6.15;;;;;;;24.88;57.23;100256.31;6189561;23;20027;-86
2022/08/15 10:52:57;;;;;;;18.13;6.60;;;;;;;25.02;56.27;100254.19;6190243;23;20059;-86
2022/08/15 10:55:35;;;;;;;14.43;6.40;;;;;;;24.83;56.81;100248.97;6217113;23;20012;-86
2022/08/15 10:58:18;;;;;;;14.80;6.20;;;;;;;24.68;56.36;100247.50;6189198;23;20015;-86
2022/08/15 11:00:51;;;;;;;8.10;6.40;;;;;;;24.57;57.34;100259.22;6190065;23;20023;-86
2022/08/15 11:03:18;;;;;;;14.60;6.22;;;;;;;24.60;57.44;100264.16;6189509;23;20083;-85
2022/08/15 11:05:53;;;;;;;14.25;6.30;;;;;;;24.61;57.53;100255.50;6189260;23;20011;-86
2022/08/15 11:08:19;;;;;;;9.13;5.97;;;;;;;24.68;57.04;100249.44;6189356;23;20016;-87
2022/08/15 11:10:46;;;;;;;10.13;6.60;;;;;;;24.68;57.52;100249.44;6189676;23;20064;-86
2022/08/15 11:13:14;;;;;;;9.35;6.47;;;;;;;24.43;57.78;100248.25;6190494;23;20015;-86
2022/08/15 11:15:57;;;;;;;10.07;6.90;;;;;;;24.44;58.09;100258.22;6216886;23;20013;-86
2022/08/15 11:18:32;;;;;;;9.60;6.47;;;;;;;24.14;59.36;100249.66;6215855;23;20008;-86
2022/08/15 11:21:15;;;;;;;8.83;5.97;;;;;;;24.20;58.86;100244.78;6189748;23;20000;-86
2022/08/15 11:23:53;;;;;;;12.23;6.40;;;;;;;24.31;58.57;100246.91;6216110;23;20052;-85
2022/08/15 11:26:30;;;;;;;13.60;6.28;;;;;;;24.52;58.14;100247.13;6189214;23;20001;-86
2022/08/15 11:29:15;;;;;;;13.85;6.30;;;;;;;24.91;57.46;100261.22;6216558;23;20001;-86
2022/08/15 11:31:57;;;;;;;10.23;6.40;;;;;;;25.07;56.76;100257.94;6189037;23;20427;-86
2022/08/15 11:34:29;;;;;;;8.40;6.27;;;;;;;25.25;55.86;100262.34;6188604;23;20083;-86
2022/08/15 11:37:01;;;;;;;13.95;6.30;;;;;;;25.10;55.57;100257.28;6189766;23;20012;-86
2022/08/15 11:39:30;;;;;;;10.40;5.78;;;;;;;25.17;55.64;100241.78;6189419;23;20005;-86
2022/08/15 11:42:03;;;;;;;12.15;6.47;;;;;;;25.42;54.63;100255.13;6189391;23;20012;-86
2022/08/15 11:44:41;;;;;;;10.13;6.13;;;;;;;25.58;54.54;100256.25;6216181;23;20029;-86
2022/08/15 11:47:16;;;;;;;8.50;6.07;;;;;;;25.69;53.69;100251.16;6189509;23;20012;-86
2022/08/15 11:49:51;;;;;;;9.07;6.20;;;;;;;25.86;53.28;100255.81;6216012;23;20032;-86
2022/08/15 11:52:24;;;;;;;11.15;6.15;;;;;;;26.01;53.13;100246.94;6189762;23;20384;-87
2022/08/15 11:55:34;;;;;;;10.38;6.20;;;;;;;26.10;52.07;100258.00;6190320;23;20012;-86
2022/08/15 11:58:03;;;;;;;9.18;6.00;;;;;;;26.04;52.26;100256.56;6099759;23;20014;-86
2022/08/15 12:00:31;;;;;;;9.97;6.23;;;;;;;26.19;51.95;100264.38;6124702;23;20010;-86
2022/08/15 12:03:15;;;;;;;6.95;5.80;;;;;;;26.33;52.17;100258.53;6148094;23;20059;-86
2022/08/15 12:05:43;;;;;;;12.85;6.22;;;;;;;26.22;50.97;100255.34;6216150;23;20008;-86
2022/08/15 12:08:20;;;;;;;8.27;6.10;;;;;;;26.21;51.65;100262.06;6190592;23;20076;-84
2022/08/15 12:10:46;;;;;;;8.68;5.63;;;;;;;26.21;51.93;100261.25;6190643;23;20008;-86
2022/08/15 12:13:16;;;;;;;10.17;6.00;;;;;;;26.06;51.90;100263.44;6191055;23;20011;-87
2022/08/15 12:15:44;;;;;;;10.50;6.10;;;;;;;26.06;52.36;100268.19;6166022;23;20099;-86
2022/08/15 12:18:18;;;;;;;9.43;5.57;;;;;;;26.08;52.04;100269.47;6190472;23;20008;-85
2022/08/15 12:20:59;;;;;;;10.60;6.30;;;;;;;26.07;51.91;100278.13;6191014;23;20071;-85
2022/08/15 12:23:31;;;;;;;7.55;5.78;;;;;;;26.07;52.39;100267.03;6190609;23;20008;-86
2022/08/15 12:26:07;;;;;;;14.13;5.60;;;;;;;25.99;51.83;100273.41;6190396;23;20013;-86
2022/08/15 12:28:35;;;;;;;12.02;6.35;;;;;;;26.00;51.32;100264.78;6217353;23;20094;-85
2022/08/15 12:31:29;;;;;;;9.23;5.78;;;;;;;26.16;51.33;100273.38;6190514;23;20009;-85
2022/08/15 12:34:15;;;;;;;8.18;5.50;;;;;;;26.25;50.52;100268.56;6191174;23;20039;-86
2022/08/15 12:36:42;;;;;;;6.90;5.55;;;;;;;26.16;50.19;100275.31;6190740;23;20450;-85
2022/08/15 12:39:10;;;;;;;10.83;5.23;;;;;;;26.18;50.55;100273.03;6190286;23;20009;-86
2022/08/15 12:41:35;;;;;;;9.15;6.07;;;;;;;26.21;50.41;100267.59;6189379;23;20005;-84
2022/08/15 12:44:05;;;;;;;8.85;5.90;;;;;;;26.27;50.36;100277.38;6190180;23;20047;-84
2022/08/15 12:46:32;;;;;;;11.13;6.13;;;;;;;26.42;51.38;100272.41;6190945;23;20012;-86
2022/08/15 12:49:00;;;;;;;9.57;5.70;;;;;;;26.72;50.18;100272.38;6190504;23;20013;-84
2022/08/15 12:51:26;;;;;;;8.30;5.80;;;;;;;26.81;49.32;100270.38;6217761;23;20001;-85
2022/08/15 12:53:55;;;;;;;10.02;5.57;;;;;;;26.99;48.57;100272.97;6217953;23;20008;-85
2022/08/15 12:56:21;;;;;;;9.52;5.70;;;;;;;26.95;49.85;100273.66;6190548;23;20036;-86
2022/08/15 12:58:46;;;;;;;10.40;5.68;;;;;;;26.76;50.48;100271.38;6190732;23;20028;-85
2022/08/15 13:01:12;;;;;;;7.93;5.47;;;;;;;26.68;50.94;100274.22;6190156;23;20015;-85
2022/08/15 13:03:43;;;;;;;8.93;5.93;;;;;;;26.76;50.15;100267.78;6190420;23;20095;-85
2022/08/15 13:06:23;;;;;;;10.37;6.20;;;;;;;26.86;50.49;100274.91;6165887;23;20070;-85
2022/08/15 13:08:49;;;;;;;9.25;6.28;;;;;;;26.80;50.39;100263.16;6190931;23;20054;-85
2022/08/15 13:11:14;;;;;;;9.27;6.23;;;;;;;26.88;50.34;100270.63;6191070;23;20084;-85
2022/08/15 13:13:40;;;;;;;8.70;6.07;;;;;;;26.79;49.52;100265.13;6190189;23;20252;-85